createdAt,value
2019-03-01T00:01:22.759Z,38.33
2019-03-01T00:04:02.642Z,33.73
2019-03-01T00:06:46.058Z,31.07
2019-03-01T00:09:58.032Z,37.00
2019-03-01T00:12:57.034Z,36.47
2019-03-01T00:16:03.470Z,39.37
2019-03-01T00:19:32.568Z,38.93
2019-03-01T00:22:20.294Z,38.13
2019-03-01T00:25:33.151Z,37.10
2019-03-01T00:28:32.870Z,38.93
2019-03-01T00:31:41.285Z,43.27
2019-03-01T00:34:54.749Z,41.33
2019-03-01T00:37:55.816Z,43.90
2019-03-01T00:40:54.756Z,48.53
2019-03-01T00:43:53.919Z,42.13
2019-03-01T00:46:23.757Z,38.57
2019-03-01T00:48:54.622Z,41.50
2019-03-01T00:51:24.506Z,35.63
2019-03-01T00:53:54.358Z,37.87
2019-03-01T00:56:24.205Z,37.87
2019-03-01T00:58:54.196Z,35.00
2019-03-01T01:01:24.274Z,35.83
2019-03-01T01:03:54.289Z,36.43
2019-03-01T01:06:24.402Z,33.27
2019-03-01T01:08:54.268Z,36.83
2019-03-01T01:11:24.416Z,38.57
2019-03-01T01:13:54.654Z,40.47
2019-03-01T01:16:28.507Z,36.63
2019-03-01T01:18:56.129Z,37.07
2019-03-01T01:21:26.022Z,38.50
2019-03-01T01:23:56.148Z,40.37
2019-03-01T01:26:26.075Z,44.73
2019-03-01T01:28:56.054Z,39.80
2019-03-01T01:31:26.256Z,37.23
2019-03-01T01:33:56.227Z,47.60
2019-03-01T01:36:26.118Z,45.13
2019-03-01T01:38:56.286Z,50.03
2019-03-01T01:41:26.138Z,48.50
2019-03-01T01:43:56.145Z,38.23
2019-03-01T01:46:26.066Z,59.70
2019-03-01T01:48:57.869Z,43.07
2019-03-01T01:51:28.756Z,36.40
2019-03-01T01:53:58.660Z,44.67
2019-03-01T01:56:28.545Z,57.43
2019-03-01T01:58:58.440Z,50.30
2019-03-01T02:01:28.350Z,39.70
2019-03-01T02:03:58.266Z,52.13
2019-03-01T02:06:28.867Z,46.30
2019-03-01T02:08:58.720Z,84.97
2019-03-01T02:11:28.775Z,52.50
2019-03-01T02:13:58.766Z,50.83
2019-03-01T02:16:28.604Z,51.17
2019-03-01T02:18:58.759Z,42.10
2019-03-01T02:21:28.978Z,47.63
2019-03-01T02:23:59.161Z,56.13
2019-03-01T02:26:29.010Z,67.53
2019-03-01T02:28:59.146Z,51.73
2019-03-01T02:31:29.249Z,60.67
2019-03-01T02:33:59.281Z,56.07
2019-03-01T02:36:29.302Z,49.17
2019-03-01T02:38:59.501Z,55.47
2019-03-01T02:41:29.535Z,58.87
2019-03-01T02:43:59.875Z,67.07
2019-03-01T02:46:29.977Z,57.37
2019-03-01T02:49:00.137Z,59.93
2019-03-01T02:51:30.215Z,51.67
2019-03-01T02:54:00.532Z,55.83
2019-03-01T02:56:30.555Z,51.33
2019-03-01T02:59:00.573Z,47.33
2019-03-01T03:01:30.680Z,63.73
2019-03-01T03:04:00.510Z,60.50
2019-03-01T03:06:54.073Z,66.53
2019-03-01T03:09:24.238Z,58.27
2019-03-01T03:11:54.077Z,60.23
2019-03-01T03:14:24.061Z,54.47
2019-03-01T03:16:53.972Z,58.40
2019-03-01T03:19:23.803Z,57.43
2019-03-01T03:21:53.690Z,57.27
2019-03-01T03:24:23.755Z,54.53
2019-03-01T03:26:53.701Z,57.07
2019-03-01T03:29:23.994Z,63.90
2019-03-01T03:31:54.258Z,61.27
2019-03-01T03:34:24.165Z,59.70
2019-03-01T03:36:54.370Z,58.93
2019-03-01T03:39:24.617Z,64.00
2019-03-01T03:41:54.455Z,48.63
2019-03-01T03:44:24.720Z,46.13
2019-03-01T03:46:54.738Z,50.27
2019-03-01T03:49:24.840Z,45.73
2019-03-01T03:51:55.192Z,44.70
2019-03-01T03:54:25.302Z,38.80
2019-03-01T03:56:56.136Z,40.57
2019-03-01T03:59:26.357Z,54.53
2019-03-01T04:01:56.643Z,48.70
2019-03-01T04:04:26.555Z,47.83
2019-03-01T04:06:56.640Z,40.83
2019-03-01T04:09:26.833Z,42.27
2019-03-01T04:11:56.681Z,42.77
2019-03-01T04:14:26.744Z,45.33
2019-03-01T04:16:56.615Z,44.90
2019-03-01T04:19:26.775Z,41.00
2019-03-01T04:21:56.703Z,44.97
2019-03-01T04:24:26.900Z,44.97
2019-03-01T04:26:56.759Z,44.37
2019-03-01T04:29:26.843Z,39.77
2019-03-01T04:31:56.963Z,41.00
2019-03-01T04:34:27.096Z,44.93
2019-03-01T04:36:57.342Z,39.77
2019-03-01T04:39:27.210Z,40.30
2019-03-01T04:41:57.385Z,39.53
2019-03-01T04:44:27.454Z,44.27
2019-03-01T04:46:57.676Z,48.67
2019-03-01T04:49:27.606Z,44.90
2019-03-01T04:51:57.740Z,42.80
2019-03-01T04:54:27.986Z,43.93
2019-03-01T04:56:57.960Z,52.63
2019-03-01T04:59:29.022Z,47.03
2019-03-01T05:01:58.915Z,41.30
2019-03-01T05:04:28.932Z,41.97
2019-03-01T05:06:59.050Z,55.33
2019-03-01T05:09:28.888Z,57.67
2019-03-01T05:11:59.183Z,58.83
2019-03-01T05:14:29.348Z,63.00
2019-03-01T05:16:59.568Z,56.53
2019-03-01T05:19:29.413Z,48.00
2019-03-01T05:21:59.592Z,43.30
2019-03-01T05:24:29.824Z,61.47
2019-03-01T05:26:59.794Z,54.97
2019-03-01T05:29:30.069Z,80.47
2019-03-01T05:32:00.262Z,74.27
2019-03-01T05:34:30.105Z,62.47
2019-03-01T05:37:00.354Z,54.87
2019-03-01T05:39:30.491Z,95.63
2019-03-01T05:42:00.506Z,56.23
2019-03-01T05:44:30.614Z,63.30
2019-03-01T05:47:00.770Z,61.63
2019-03-01T05:49:30.844Z,88.37
2019-03-01T05:52:01.080Z,93.17
2019-03-01T05:54:31.249Z,59.60
2019-03-01T05:57:01.527Z,50.07
2019-03-01T05:59:31.882Z,61.47
2019-03-01T06:02:49.528Z,79.50
2019-03-01T06:05:29.537Z,84.00
2019-03-01T06:08:24.639Z,91.57
2019-03-01T06:11:19.413Z,70.83
2019-03-01T06:14:07.319Z,66.93
2019-03-01T06:17:01.760Z,80.67
2019-03-01T06:19:52.509Z,47.77
2019-03-01T06:22:57.293Z,48.70
2019-03-01T06:26:19.420Z,49.77
2019-03-01T06:29:42.173Z,56.03
2019-03-01T06:32:45.685Z,84.97
2019-03-01T06:35:44.679Z,56.73
2019-03-01T06:39:11.122Z,71.63
2019-03-01T06:42:31.712Z,79.27
2019-03-01T06:45:38.714Z,88.40
2019-03-01T06:48:10.400Z,75.60
2019-03-01T06:50:44.356Z,55.57
2019-03-01T06:53:14.685Z,55.73
2019-03-01T06:56:06.791Z,51.87
2019-03-01T06:58:46.243Z,54.40
2019-03-01T07:01:54.890Z,68.53
2019-03-01T07:04:29.738Z,61.47
2019-03-01T07:06:59.967Z,71.57
2019-03-01T07:09:30.266Z,76.80
2019-03-01T07:12:00.431Z,61.10
2019-03-01T07:14:30.646Z,62.77
2019-03-01T07:17:00.873Z,69.63
2019-03-01T07:19:31.080Z,65.83
2019-03-01T07:22:01.448Z,55.67
2019-03-01T07:24:31.610Z,55.10
2019-03-01T07:27:02.099Z,55.43
2019-03-01T07:29:32.307Z,60.17
2019-03-01T07:32:02.422Z,63.80
2019-03-01T07:34:32.562Z,72.47
2019-03-01T07:37:02.577Z,67.60
2019-03-01T07:39:32.794Z,77.87
2019-03-01T07:42:03.142Z,73.50
2019-03-01T07:44:33.401Z,77.77
2019-03-01T07:47:03.567Z,70.93
2019-03-01T07:49:33.900Z,81.63
2019-03-01T07:52:05.022Z,84.90
2019-03-01T07:54:35.951Z,84.17
2019-03-01T07:57:06.256Z,82.80
2019-03-01T07:59:38.065Z,83.13
2019-03-01T08:02:08.330Z,79.30
2019-03-01T08:04:39.533Z,84.77
2019-03-01T08:07:09.688Z,66.77
2019-03-01T08:09:41.364Z,60.47
2019-03-01T08:12:11.569Z,58.57
2019-03-01T08:14:41.737Z,55.10
2019-03-01T08:17:11.826Z,60.60
2019-03-01T08:19:41.970Z,59.53
2019-03-01T08:22:12.234Z,68.87
2019-03-01T08:24:46.293Z,56.13
2019-03-01T08:27:14.533Z,59.40
2019-03-01T08:29:44.678Z,63.30
2019-03-01T08:32:14.856Z,60.90
2019-03-01T08:34:45.141Z,66.00
2019-03-01T08:37:17.612Z,67.57
2019-03-01T08:39:47.059Z,63.73
2019-03-01T08:42:17.358Z,67.43
2019-03-01T08:44:47.673Z,71.60
2019-03-01T08:47:23.290Z,74.03
2019-03-01T08:49:49.739Z,70.17
2019-03-01T08:52:19.817Z,66.33
2019-03-01T08:54:49.822Z,73.03
2019-03-01T08:57:22.509Z,71.70
2019-03-01T08:59:54.219Z,67.30
2019-03-01T09:02:24.371Z,70.10
2019-03-01T09:04:54.665Z,68.63
2019-03-01T09:07:27.115Z,72.47
2019-03-01T09:09:58.056Z,70.23
2019-03-01T09:12:28.396Z,68.17
2019-03-01T09:14:58.522Z,74.97
2019-03-01T09:17:28.663Z,77.73
2019-03-01T09:20:00.190Z,77.63
2019-03-01T09:22:30.813Z,86.87
2019-03-01T09:25:02.656Z,80.00
2019-03-01T09:27:32.844Z,80.63
2019-03-01T09:30:04.949Z,85.50
2019-03-01T09:32:35.073Z,77.47
2019-03-01T09:35:24.043Z,77.47
2019-03-01T09:37:54.426Z,84.47
2019-03-01T09:40:29.873Z,81.83
2019-03-01T09:43:01.017Z,83.57
2019-03-01T09:45:40.103Z,82.57
2019-03-01T09:48:12.143Z,76.90
2019-03-01T09:50:46.392Z,80.17
2019-03-01T09:53:18.948Z,82.60
2019-03-01T09:55:49.043Z,77.43
2019-03-01T09:58:19.280Z,78.83
2019-03-01T10:00:56.397Z,81.33
2019-03-01T10:03:24.431Z,80.77
2019-03-01T10:05:54.705Z,85.07
2019-03-01T10:08:25.889Z,83.00
2019-03-01T10:10:56.442Z,84.07
2019-03-01T10:13:26.653Z,83.27
2019-03-01T10:15:56.855Z,83.30
2019-03-01T10:18:27.192Z,82.13
2019-03-01T10:20:57.105Z,85.40
2019-03-01T10:23:27.226Z,81.67
2019-03-01T10:25:57.181Z,76.73
2019-03-01T10:28:27.160Z,78.40
2019-03-01T10:30:57.298Z,79.07
2019-03-01T10:33:27.560Z,80.63
2019-03-01T10:35:57.449Z,75.67
2019-03-01T10:38:27.301Z,75.63
2019-03-01T10:40:57.549Z,76.13
2019-03-01T10:43:28.890Z,75.93
2019-03-01T10:45:59.317Z,74.37
2019-03-01T10:48:29.435Z,68.87
2019-03-01T10:50:59.309Z,69.13
2019-03-01T10:53:29.497Z,67.13
2019-03-01T10:55:59.487Z,67.40
2019-03-01T10:58:29.313Z,67.03
2019-03-01T11:00:59.154Z,68.73
2019-03-01T11:03:29.448Z,66.70
2019-03-01T11:06:00.092Z,67.27
2019-03-01T11:08:30.077Z,63.90
2019-03-01T11:11:01.307Z,63.70
2019-03-01T11:13:31.238Z,64.87
2019-03-01T11:16:01.090Z,67.20
2019-03-01T11:18:31.167Z,62.30
2019-03-01T11:21:01.047Z,59.73
2019-03-01T11:23:30.910Z,57.33
2019-03-01T11:26:00.909Z,59.17
2019-03-01T11:28:30.788Z,59.90
2019-03-01T11:31:00.989Z,60.70
2019-03-01T11:33:31.216Z,65.83
2019-03-01T11:36:01.410Z,63.80
2019-03-01T11:38:31.607Z,64.87
2019-03-01T11:41:01.914Z,63.53
2019-03-01T11:43:32.093Z,60.00
2019-03-01T11:46:02.311Z,63.00
2019-03-01T11:48:33.207Z,63.70
2019-03-01T11:51:03.529Z,62.33
2019-03-01T11:53:33.744Z,56.33
2019-03-01T11:56:04.107Z,57.90
2019-03-01T11:58:34.193Z,60.77
2019-03-01T12:01:04.399Z,63.13
2019-03-01T12:03:34.745Z,62.20
2019-03-01T12:06:06.002Z,58.83
2019-03-01T12:08:37.492Z,57.87
2019-03-01T12:11:08.888Z,57.40
2019-03-01T12:13:39.177Z,56.77
2019-03-01T12:16:09.457Z,54.90
2019-03-01T12:18:39.676Z,53.47
2019-03-01T12:21:10.162Z,53.33
2019-03-01T12:23:40.214Z,51.45
2019-03-01T12:26:10.146Z,52.43
2019-03-01T12:28:40.317Z,55.25
2019-03-01T12:31:10.597Z,52.50
2019-03-01T12:33:40.866Z,51.28
2019-03-01T12:36:10.903Z,52.65
2019-03-01T12:38:41.254Z,50.35
2019-03-01T12:41:11.516Z,50.60
2019-03-01T12:43:41.857Z,50.03
2019-03-01T12:46:12.083Z,51.15
2019-03-01T12:48:42.301Z,51.42
2019-03-01T12:51:12.550Z,50.78
2019-03-01T12:53:42.727Z,54.73
2019-03-01T12:56:12.954Z,50.60
2019-03-01T12:58:43.129Z,55.20
2019-03-01T13:01:13.394Z,51.95
2019-03-01T13:03:44.597Z,56.02
2019-03-01T13:06:14.975Z,55.95
2019-03-01T13:08:47.821Z,56.15
2019-03-01T13:11:17.913Z,52.53
2019-03-01T13:13:47.991Z,52.45
2019-03-01T13:16:18.258Z,53.53
2019-03-01T13:18:51.283Z,51.02
2019-03-01T13:21:20.396Z,54.95
2019-03-01T13:23:50.603Z,52.20
2019-03-01T13:26:20.846Z,56.42
2019-03-01T13:28:51.086Z,51.20
2019-03-01T13:31:21.254Z,50.25
2019-03-01T13:33:51.498Z,51.80
2019-03-01T13:36:21.756Z,48.83
2019-03-01T13:38:51.927Z,49.98
2019-03-01T13:41:22.200Z,53.45
2019-03-01T13:43:52.417Z,53.17
2019-03-01T13:46:22.657Z,50.33
2019-03-01T13:48:54.193Z,58.50
2019-03-01T13:51:25.041Z,48.63
2019-03-01T13:53:55.165Z,51.00
2019-03-01T13:56:25.418Z,49.27
2019-03-01T13:58:55.700Z,51.65
2019-03-01T14:01:27.080Z,50.98
2019-03-01T14:03:59.662Z,52.13
2019-03-01T14:06:29.628Z,48.78
2019-03-01T14:08:59.808Z,49.60
2019-03-01T14:11:29.978Z,47.88
2019-03-01T14:14:00.285Z,50.12
2019-03-01T14:16:30.606Z,50.55
2019-03-01T14:19:00.908Z,48.35
2019-03-01T14:21:33.110Z,46.23
2019-03-01T14:24:03.137Z,46.83
2019-03-01T14:26:33.303Z,49.70
2019-03-01T14:29:03.402Z,47.95
2019-03-01T14:31:33.623Z,50.85
2019-03-01T14:34:03.884Z,50.75
2019-03-01T14:36:34.140Z,48.35
2019-03-01T14:39:06.758Z,49.50
2019-03-01T14:41:37.183Z,51.05
2019-03-01T14:44:07.446Z,51.02
2019-03-01T14:46:37.641Z,49.58
2019-03-01T14:49:07.983Z,50.92
2019-03-01T14:51:38.217Z,46.60
2019-03-01T14:54:09.898Z,50.05
2019-03-01T14:56:50.286Z,47.73
2019-03-01T14:59:24.425Z,47.70
2019-03-01T15:02:24.217Z,47.45
2019-03-01T15:04:54.473Z,48.58
2019-03-01T15:07:27.839Z,46.98
2019-03-01T15:09:57.267Z,44.33
2019-03-01T15:12:28.415Z,47.95
2019-03-01T15:14:58.699Z,63.63
2019-03-01T15:17:29.000Z,63.55
2019-03-01T15:19:59.181Z,61.63
2019-03-01T15:22:29.418Z,64.87
2019-03-01T15:24:59.623Z,63.38
2019-03-01T15:27:29.803Z,65.52
2019-03-01T15:29:59.985Z,63.20
2019-03-01T15:32:31.185Z,64.17
2019-03-01T15:35:04.015Z,61.42
2019-03-01T15:37:35.047Z,62.65
2019-03-01T15:40:07.395Z,63.00
2019-03-01T15:42:37.806Z,63.23
2019-03-01T15:45:08.839Z,61.13
2019-03-01T15:47:39.112Z,62.15
2019-03-01T15:50:10.305Z,64.25
2019-03-01T15:52:40.569Z,64.97
2019-03-01T15:55:11.774Z,65.07
2019-03-01T15:57:43.197Z,66.63
2019-03-01T16:00:13.796Z,65.17
2019-03-01T16:02:44.256Z,68.97
2019-03-01T16:05:14.741Z,65.07
2019-03-01T16:07:45.027Z,64.70
2019-03-01T16:10:15.626Z,67.83
2019-03-01T16:12:45.920Z,64.47
2019-03-01T16:15:16.368Z,65.13
2019-03-01T16:17:46.833Z,65.47
2019-03-01T16:20:17.169Z,64.40
2019-03-01T16:22:47.481Z,67.97
2019-03-01T16:25:20.659Z,65.87
2019-03-01T16:27:50.739Z,65.47
2019-03-01T16:30:21.720Z,67.00
2019-03-01T16:32:52.354Z,64.93
2019-03-01T16:35:22.682Z,65.87
2019-03-01T16:37:57.768Z,67.80
2019-03-01T16:40:26.297Z,65.33
2019-03-01T16:42:56.526Z,65.30
2019-03-01T16:45:26.772Z,65.67
2019-03-01T16:47:57.097Z,62.87
2019-03-01T16:50:27.262Z,63.40
2019-03-01T16:52:57.333Z,61.27
2019-03-01T16:55:28.699Z,63.40
2019-03-01T16:58:06.865Z,63.40
2019-03-01T17:00:30.921Z,66.37
2019-03-01T17:03:01.227Z,67.80
2019-03-01T17:05:31.351Z,89.57
2019-03-01T17:08:05.643Z,74.03
2019-03-01T17:10:33.560Z,75.43
2019-03-01T17:13:03.810Z,70.37
2019-03-01T17:15:34.307Z,81.57
2019-03-01T17:18:04.605Z,86.23
2019-03-01T17:20:38.425Z,79.93
2019-03-01T17:23:07.019Z,75.83
2019-03-01T17:25:37.432Z,81.00
2019-03-01T17:28:07.707Z,71.73
2019-03-01T17:30:38.002Z,68.00
2019-03-01T17:33:09.677Z,64.87
2019-03-01T17:35:41.097Z,62.87
2019-03-01T17:38:12.127Z,60.27
2019-03-01T17:40:42.458Z,54.90
2019-03-01T17:43:13.088Z,56.87
2019-03-01T17:45:43.508Z,54.47
2019-03-01T17:48:14.394Z,54.70
2019-03-01T17:50:44.839Z,52.50
2019-03-01T17:53:16.166Z,50.93
2019-03-01T17:55:46.851Z,51.33
2019-03-01T17:58:17.261Z,50.63
2019-03-01T18:00:48.174Z,49.67
2019-03-01T18:03:19.380Z,49.93
2019-03-01T18:05:50.812Z,55.70
2019-03-01T18:08:22.017Z,58.53
2019-03-01T18:10:53.245Z,64.17
2019-03-01T18:13:24.636Z,59.17
2019-03-01T18:15:55.795Z,55.83
2019-03-01T18:18:27.459Z,53.73
2019-03-01T18:20:58.323Z,51.67
2019-03-01T18:23:29.458Z,59.67
2019-03-01T18:26:03.308Z,56.53
2019-03-01T18:28:33.823Z,51.87
2019-03-01T18:31:04.750Z,54.07
2019-03-01T18:33:36.022Z,52.73
2019-03-01T18:36:08.135Z,55.63
2019-03-01T18:38:39.672Z,55.80
2019-03-01T18:41:11.305Z,60.67
2019-03-01T18:43:45.795Z,63.33
2019-03-01T18:46:19.204Z,60.83
2019-03-01T18:48:49.045Z,72.90
2019-03-01T18:51:20.470Z,105.43
2019-03-01T18:53:52.055Z,85.17
2019-03-01T18:56:25.034Z,75.10
2019-03-01T18:58:56.510Z,73.43
2019-03-01T19:01:28.033Z,69.97
2019-03-01T19:03:59.554Z,68.50
2019-03-01T19:06:30.515Z,56.93
2019-03-01T19:09:02.097Z,51.27
2019-03-01T19:11:34.720Z,55.13
2019-03-01T19:14:06.268Z,54.63
2019-03-01T19:16:38.985Z,48.63
2019-03-01T19:19:10.368Z,47.93
2019-03-01T19:21:42.134Z,52.13
2019-03-01T19:24:13.549Z,48.63
2019-03-01T19:26:45.086Z,44.07
2019-03-01T19:29:17.694Z,45.87
2019-03-01T19:31:49.486Z,46.43
2019-03-01T19:34:20.605Z,52.73
2019-03-01T19:36:52.575Z,53.03
2019-03-01T19:39:24.808Z,53.30
2019-03-01T19:41:58.022Z,47.73
2019-03-01T19:44:29.870Z,55.73
2019-03-01T19:47:01.429Z,51.03
2019-03-01T19:49:33.323Z,54.40
2019-03-01T19:52:04.456Z,58.13
2019-03-01T19:54:36.518Z,51.53
2019-03-01T19:57:08.197Z,63.17
2019-03-01T19:59:39.213Z,50.23
2019-03-01T20:02:10.832Z,50.73
2019-03-01T20:04:42.150Z,50.10
2019-03-01T20:07:15.988Z,61.37
2019-03-01T20:09:46.788Z,59.20
2019-03-01T20:12:18.497Z,54.37
2019-03-01T20:14:50.269Z,63.37
2019-03-01T20:17:21.569Z,61.13
2019-03-01T20:19:53.565Z,59.63
2019-03-01T20:22:26.285Z,55.07
2019-03-01T20:25:01.120Z,59.07
2019-03-01T20:27:35.534Z,53.37
2019-03-01T20:30:06.795Z,53.17
2019-03-01T20:32:38.130Z,48.47
2019-03-01T20:35:12.816Z,53.70
2019-03-01T20:37:43.469Z,50.47
2019-03-01T20:40:14.933Z,61.27
2019-03-01T20:42:46.453Z,55.83
2019-03-01T20:45:26.023Z,56.37
2019-03-01T20:47:56.365Z,58.50
2019-03-01T20:50:27.588Z,50.13
2019-03-01T20:52:59.070Z,49.67
2019-03-01T20:55:33.115Z,53.40
2019-03-01T20:58:04.354Z,50.27
2019-03-01T21:00:35.594Z,55.90
2019-03-01T21:03:06.353Z,54.57
2019-03-01T21:05:37.573Z,65.73
2019-03-01T21:08:08.585Z,60.60
2019-03-01T21:10:39.489Z,55.00
2019-03-01T21:13:12.491Z,57.23
2019-03-01T21:15:42.730Z,52.73
2019-03-01T21:18:13.643Z,45.23
2019-03-01T21:20:44.258Z,51.10
2019-03-01T21:23:15.296Z,51.10
2019-03-01T21:25:46.307Z,58.93
2019-03-01T21:28:16.551Z,54.93
2019-03-01T21:30:47.073Z,53.83
2019-03-01T21:33:17.453Z,55.83
2019-03-01T21:35:47.747Z,49.83
2019-03-01T21:38:19.458Z,53.63
2019-03-01T21:40:49.760Z,57.90
2019-03-01T21:43:19.949Z,62.63
2019-03-01T21:45:50.093Z,61.83
2019-03-01T21:48:21.973Z,62.73
2019-03-01T21:50:52.322Z,59.93
2019-03-01T21:53:22.485Z,51.03
2019-03-01T21:55:52.701Z,73.57
2019-03-01T21:58:22.991Z,61.37
2019-03-01T22:00:53.135Z,64.07
2019-03-01T22:03:24.885Z,63.43
2019-03-01T22:05:55.125Z,55.17
2019-03-01T22:08:25.301Z,55.37
2019-03-01T22:10:55.583Z,55.50
2019-03-01T22:13:25.821Z,69.93
2019-03-01T22:15:57.570Z,79.40
2019-03-01T22:18:27.871Z,76.70
2019-03-01T22:20:57.988Z,59.63
2019-03-01T22:23:28.253Z,58.33
2019-03-01T22:25:58.723Z,68.63
2019-03-01T22:28:28.859Z,69.60
2019-03-01T22:31:00.236Z,82.87
2019-03-01T22:33:31.771Z,75.63
2019-03-01T22:36:01.771Z,73.70
2019-03-01T22:38:31.930Z,69.57
2019-03-01T22:41:03.957Z,71.67
2019-03-01T22:43:34.086Z,66.37
2019-03-01T22:46:04.338Z,60.20
2019-03-01T22:48:34.613Z,58.23
2019-03-01T22:51:04.741Z,68.30
2019-03-01T22:53:34.973Z,73.17
2019-03-01T22:56:05.274Z,66.07
2019-03-01T22:58:36.476Z,66.80
2019-03-01T23:01:17.446Z,66.53
2019-03-01T23:03:51.572Z,64.97
2019-03-01T23:06:22.049Z,60.83
2019-03-01T23:08:52.166Z,74.23
2019-03-01T23:11:22.414Z,60.77
2019-03-01T23:13:55.435Z,67.70
2019-03-01T23:16:24.413Z,62.07
2019-03-01T23:18:56.940Z,64.87
2019-03-01T23:21:26.613Z,65.83
2019-03-01T23:23:59.552Z,71.53
2019-03-01T23:26:28.553Z,71.90
2019-03-01T23:28:59.714Z,69.40
2019-03-01T23:31:29.937Z,69.03
2019-03-01T23:34:00.145Z,88.57
2019-03-01T23:36:30.387Z,70.43
2019-03-01T23:39:00.661Z,70.40
2019-03-01T23:41:30.824Z,88.90
2019-03-01T23:44:02.737Z,71.23
2019-03-01T23:46:32.856Z,72.47
2019-03-01T23:49:06.354Z,69.43
2019-03-01T23:51:35.034Z,64.50
2019-03-01T23:54:05.752Z,68.33
2019-03-01T23:56:37.124Z,65.40
2019-03-01T23:59:06.909Z,76.63
